createdAt,value
2017-05-12T00:00:35.629Z,89.85
2017-05-12T00:01:16.201Z,89.75
2017-05-12T00:01:56.666Z,89.47
2017-05-12T00:02:37.207Z,89.37
2017-05-12T00:03:17.701Z,89.37
2017-05-12T00:03:58.197Z,89.37
2017-05-12T00:04:38.769Z,89.37
2017-05-12T00:05:19.429Z,89.37
2017-05-12T00:05:59.871Z,89.47
2017-05-12T00:06:40.343Z,89.47
2017-05-12T00:07:20.854Z,89.65
2017-05-12T00:08:01.228Z,89.65
2017-05-12T00:08:41.864Z,89.75
2017-05-12T00:09:22.367Z,89.8
2017-05-12T00:10:02.914Z,89.51
2017-05-12T00:10:43.425Z,90.09
2017-05-12T00:11:23.841Z,89.9
2017-05-12T00:12:04.424Z,89.94
2017-05-12T00:12:44.838Z,89.75
2017-05-12T00:13:25.340Z,89.85
2017-05-12T00:14:05.826Z,89.37
2017-05-12T00:14:46.367Z,89.37
2017-05-12T00:15:26.966Z,89.08
2017-05-12T00:16:07.714Z,88.98
2017-05-12T00:16:48.380Z,89.08
2017-05-12T00:17:28.710Z,89.27
2017-05-12T00:18:09.287Z,88.89
2017-05-12T00:18:49.725Z,89.27
2017-05-12T00:19:30.251Z,88.79
2017-05-12T00:20:10.918Z,89.18
2017-05-12T00:20:51.385Z,89.37
2017-05-12T00:21:31.840Z,89.08
2017-05-12T00:22:12.321Z,89.61
2017-05-12T00:22:52.966Z,89.94
2017-05-12T00:23:33.435Z,89.65
2017-05-12T00:24:13.900Z,89.47
2017-05-12T00:24:54.431Z,89.75
2017-05-12T00:25:34.993Z,89.23
2017-05-12T00:26:15.520Z,89.61
2017-05-12T00:26:55.990Z,89.51
2017-05-12T00:27:36.482Z,89.8
2017-05-12T00:28:17.078Z,89.61
2017-05-12T00:28:57.547Z,89.51
2017-05-12T00:29:38.001Z,89.75
2017-05-12T00:30:18.527Z,89.85
2017-05-12T00:30:58.984Z,89.18
2017-05-12T00:31:39.486Z,89.61
2017-05-12T00:32:19.952Z,88.98
2017-05-12T00:33:00.542Z,89.27
2017-05-12T00:33:40.979Z,89.65
2017-05-12T00:34:21.486Z,89.37
2017-05-12T00:35:02.116Z,89.08
2017-05-12T00:35:42.640Z,89.18
2017-05-12T00:36:23.122Z,88.79
2017-05-12T00:37:03.615Z,88.41
2017-05-12T00:37:44.052Z,88.7
2017-05-12T00:38:24.608Z,88.98
2017-05-12T00:39:05.032Z,89.08
2017-05-12T00:39:45.586Z,88.22
2017-05-12T00:40:26.075Z,88.98
2017-05-12T00:41:06.533Z,89.18
2017-05-12T00:41:47.229Z,88.6
2017-05-12T00:42:27.752Z,89.32
2017-05-12T00:43:08.294Z,89.37
2017-05-12T00:43:48.743Z,89.04
2017-05-12T00:44:29.972Z,88.89
2017-05-12T00:46:24.196Z,88.98
2017-05-12T00:47:11.392Z,88.94
2017-05-12T00:47:52.113Z,89.13
2017-05-12T00:48:32.826Z,88.75
2017-05-12T00:49:13.347Z,88.75
2017-05-12T00:49:53.982Z,88.84
2017-05-12T00:50:34.448Z,88.98
2017-05-12T00:51:15.256Z,88.7
2017-05-12T00:51:55.705Z,88.89
2017-05-12T00:52:36.262Z,88.98
2017-05-12T00:53:16.756Z,88.98
2017-05-12T00:53:57.253Z,88.79
2017-05-12T00:54:49.251Z,88.27
2017-05-12T00:55:27.896Z,88.37
2017-05-12T00:56:08.448Z,88.75
2017-05-12T00:56:49.037Z,88.37
2017-05-12T00:57:29.422Z,88.51
2017-05-12T00:58:09.983Z,88.7
2017-05-12T00:58:50.470Z,88.31
2017-05-12T00:59:31.158Z,88.51
2017-05-12T01:00:11.568Z,88.51
2017-05-12T01:00:52.030Z,88.22
2017-05-12T01:01:32.580Z,88.51
2017-05-12T01:02:13.038Z,88.79
2017-05-12T01:02:56.403Z,88.22
2017-05-12T01:03:57.294Z,88.17
2017-05-12T01:11:15.841Z,88.37
2017-05-12T01:14:56.545Z,88.41
2017-05-12T01:17:20.614Z,88.02
2017-05-12T01:18:12.353Z,88.02
2017-05-12T01:18:57.324Z,87.84
2017-05-12T01:19:38.656Z,87.93
2017-05-12T01:21:32.006Z,87.26
2017-05-12T01:22:13.286Z,87.35
2017-05-12T01:22:53.726Z,87.07
2017-05-12T01:23:34.221Z,87.26
2017-05-12T01:24:14.756Z,86.88
2017-05-12T01:24:55.151Z,86.97
2017-05-12T01:25:35.665Z,87.21
2017-05-12T01:26:16.110Z,87.21
2017-05-12T01:26:56.578Z,86.92
2017-05-12T01:27:37.159Z,86.78
2017-05-12T01:28:17.610Z,86.72
2017-05-12T01:28:58.097Z,86.21
2017-05-12T01:29:38.541Z,86.49
2017-05-12T01:30:19.047Z,86.15
2017-05-12T01:30:59.582Z,86.25
2017-05-12T01:31:40.043Z,86.54
2017-05-12T01:32:20.523Z,85.96
2017-05-12T01:33:01.000Z,86.25
2017-05-12T01:33:41.534Z,86.54
2017-05-12T01:34:22.098Z,85.96
2017-05-12T01:35:02.518Z,86.34
2017-05-12T01:35:42.993Z,85.38
2017-05-12T01:36:23.502Z,85.48
2017-05-12T01:37:03.979Z,85.96
2017-05-12T01:37:44.630Z,85.77
2017-05-12T01:38:25.115Z,85.58
2017-05-12T01:39:05.596Z,85.48
2017-05-12T01:39:46.130Z,85.77
2017-05-12T01:40:26.597Z,85.28
2017-05-12T01:41:07.086Z,85.58
2017-05-12T01:41:47.595Z,85.58
2017-05-12T01:42:28.043Z,85.48
2017-05-12T01:43:08.639Z,85.96
2017-05-12T01:43:49.120Z,85.96
2017-05-12T01:44:29.568Z,85.48
2017-05-12T01:45:10.110Z,85.48
2017-05-12T01:45:50.614Z,85.1
2017-05-12T01:46:31.065Z,85.28
2017-05-12T01:47:11.629Z,85.48
2017-05-12T01:47:52.048Z,85.38
2017-05-12T01:48:32.563Z,85.38
2017-05-12T01:49:13.074Z,86.05
2017-05-12T01:49:53.514Z,85.58
2017-05-12T01:50:34.024Z,85.67
2017-05-12T01:51:14.859Z,85.86
2017-05-12T01:51:55.176Z,85.38
2017-05-12T01:52:35.662Z,85.86
2017-05-12T01:53:16.127Z,86.34
2017-05-12T01:53:56.657Z,85.67
2017-05-12T01:54:37.107Z,85.58
2017-05-12T01:55:17.615Z,85.67
2017-05-12T01:55:58.106Z,85.38
2017-05-12T01:56:38.577Z,85.48
2017-05-12T01:57:19.045Z,86.34
2017-05-12T01:57:59.571Z,86.34
2017-05-12T01:58:40.007Z,85.58
2017-05-12T01:59:20.502Z,85.48
2017-05-12T02:00:00.974Z,86.05
2017-05-12T02:00:41.531Z,86.15
2017-05-12T02:01:22.041Z,85.67
2017-05-12T02:02:02.510Z,85.38
2017-05-12T02:02:42.974Z,85.77
2017-05-12T02:03:23.501Z,85.86
2017-05-12T02:04:03.966Z,85.67
2017-05-12T02:04:44.415Z,85.77
2017-05-12T02:05:24.947Z,85.67
2017-05-12T02:06:05.437Z,85.48
2017-05-12T02:06:45.915Z,85.48
2017-05-12T02:07:26.436Z,85
2017-05-12T02:08:06.891Z,85.48
2017-05-12T02:08:47.433Z,85.77
2017-05-12T02:09:27.857Z,85.48
2017-05-12T02:10:08.368Z,85.48
2017-05-12T02:10:48.869Z,85.77
2017-05-12T02:11:29.410Z,85.28
2017-05-12T02:12:09.968Z,85.1
2017-05-12T02:12:50.455Z,85.96
2017-05-12T02:13:30.938Z,85.1
2017-05-12T02:14:11.443Z,85
2017-05-12T02:14:52.948Z,85
2017-05-12T02:15:33.423Z,85.1
2017-05-12T02:16:13.934Z,85.96
2017-05-12T02:16:54.415Z,85.19
2017-05-12T02:17:34.960Z,85
2017-05-12T02:18:15.385Z,85.77
2017-05-12T02:18:55.950Z,85.38
2017-05-12T02:19:36.422Z,84.71
2017-05-12T02:20:16.918Z,85.1
2017-05-12T02:20:57.369Z,85.48
2017-05-12T02:21:37.869Z,85.28
2017-05-12T02:22:18.356Z,85
2017-05-12T02:22:59.744Z,84.91
2017-05-12T02:23:40.289Z,85.28
2017-05-12T02:24:20.732Z,85.19
2017-05-12T02:25:01.231Z,85.48
2017-05-12T02:25:41.739Z,85.38
2017-05-12T02:26:22.209Z,85.1
2017-05-12T02:27:02.734Z,84.61
2017-05-12T02:27:43.219Z,85.67
2017-05-12T02:28:23.743Z,84.91
2017-05-12T02:29:04.206Z,85.58
2017-05-12T02:29:44.684Z,85.77
2017-05-12T02:30:25.191Z,85.38
2017-05-12T02:31:05.649Z,85.48
2017-05-12T02:31:46.142Z,85.48
2017-05-12T02:32:26.635Z,85.44
2017-05-12T02:33:07.117Z,85.96
2017-05-12T02:33:47.654Z,86.15
2017-05-12T02:34:28.220Z,85.58
2017-05-12T02:35:08.670Z,86.01
2017-05-12T02:35:49.096Z,86.01
2017-05-12T02:36:29.611Z,86.49
2017-05-12T02:37:10.142Z,86.49
2017-05-12T02:37:50.560Z,86.72
2017-05-12T02:38:31.115Z,86.3
2017-05-12T02:39:11.571Z,86.4
2017-05-12T02:39:52.083Z,86.01
2017-05-12T02:40:32.663Z,86.3
2017-05-12T02:41:13.079Z,87.02
2017-05-12T02:41:53.645Z,87.16
2017-05-12T02:42:34.097Z,87.35
2017-05-12T02:43:14.635Z,87.16
2017-05-12T02:43:55.114Z,87.98
2017-05-12T02:44:35.546Z,87.88
2017-05-12T02:45:16.092Z,87.31
2017-05-12T02:45:56.579Z,87.64
2017-05-12T02:46:37.097Z,88.31
2017-05-12T02:47:17.603Z,88.17
2017-05-12T02:47:58.095Z,87.93
2017-05-12T02:48:38.533Z,88.37
2017-05-12T02:49:19.148Z,88.27
2017-05-12T02:49:59.604Z,88.31
2017-05-12T02:50:40.156Z,88.31
2017-05-12T02:51:20.580Z,87.88
2017-05-12T02:52:01.036Z,88.12
2017-05-12T02:52:41.533Z,87.98
2017-05-12T02:53:22.043Z,88.17
2017-05-12T02:54:02.469Z,88.56
2017-05-12T02:54:43.052Z,88.75
2017-05-12T02:55:23.548Z,88.75
2017-05-12T02:56:04.025Z,89.18
2017-05-12T02:56:44.482Z,88.98
2017-05-12T02:57:25.007Z,88.22
2017-05-12T02:58:05.534Z,88.7
2017-05-12T02:58:45.992Z,88.37
2017-05-12T02:59:26.451Z,88.56
2017-05-12T03:00:06.973Z,88.37
2017-05-12T03:00:47.460Z,88.27
2017-05-12T03:01:27.976Z,88.56
2017-05-12T03:02:08.528Z,89.13
2017-05-12T03:02:48.977Z,89.23
2017-05-12T03:03:29.506Z,89.13
2017-05-12T03:04:10.049Z,88.75
2017-05-12T03:04:50.504Z,89.13
2017-05-12T03:05:30.992Z,89.42
2017-05-12T03:06:11.478Z,89.42
2017-05-12T03:06:51.998Z,89.32
2017-05-12T03:07:32.469Z,89.04
2017-05-12T03:08:13.013Z,89.42
2017-05-12T03:08:53.497Z,89.32
2017-05-12T03:09:33.951Z,89.18
2017-05-12T03:10:14.523Z,89.13
2017-05-12T03:10:55.347Z,88.79
2017-05-12T03:11:35.794Z,88.75
2017-05-12T03:12:16.315Z,88.56
2017-05-12T03:12:56.769Z,88.75
2017-05-12T03:13:37.269Z,89.23
2017-05-12T03:14:17.805Z,89.32
2017-05-12T03:14:58.260Z,89.23
2017-05-12T03:15:38.832Z,89.42
2017-05-12T03:16:19.268Z,89.04
2017-05-12T03:16:59.736Z,88.37
2017-05-12T03:17:40.274Z,88.84
2017-05-12T03:18:20.768Z,88.84
2017-05-12T03:19:01.276Z,89.04
2017-05-12T03:19:41.781Z,89.04
2017-05-12T03:20:22.353Z,88.84
2017-05-12T03:21:02.913Z,89.42
2017-05-12T03:21:43.617Z,89.13
2017-05-12T03:22:24.124Z,89.32
2017-05-12T03:23:04.650Z,88.84
2017-05-12T03:23:45.109Z,89.32
2017-05-12T03:24:25.561Z,89.23
2017-05-12T03:25:06.070Z,89.61
2017-05-12T03:25:46.450Z,90.28
2017-05-12T03:26:27.066Z,90.09
2017-05-12T03:27:07.599Z,89.71
2017-05-12T03:27:48.019Z,89.8
2017-05-12T03:28:28.631Z,89.51
2017-05-12T03:29:09.136Z,89.8
2017-05-12T03:29:49.661Z,89.61
2017-05-12T03:30:30.153Z,90
2017-05-12T03:31:10.579Z,90.53
2017-05-12T03:31:51.057Z,90.38
2017-05-12T03:32:31.564Z,90.28
2017-05-12T03:33:12.126Z,90.28
2017-05-12T03:33:52.589Z,90.09
2017-05-12T03:34:33.094Z,90.47
2017-05-12T03:35:13.628Z,90.38
2017-05-12T03:35:54.130Z,90.86
2017-05-12T03:36:34.569Z,89.71
2017-05-12T03:37:15.087Z,89.42
2017-05-12T03:37:55.622Z,89.8
2017-05-12T03:38:36.042Z,89.42
2017-05-12T03:39:16.526Z,89.13
2017-05-12T03:39:57.013Z,89.32
2017-05-12T03:40:37.600Z,89.42
2017-05-12T03:41:18.093Z,89.71
2017-05-12T03:41:58.526Z,89.8
2017-05-12T03:42:39.023Z,89.61
2017-05-12T03:43:19.540Z,89.61
2017-05-12T03:43:59.962Z,89.8
2017-05-12T03:44:40.484Z,90
2017-05-12T03:45:20.970Z,90.09
2017-05-12T03:46:01.462Z,90.09
2017-05-12T03:46:41.989Z,89.71
2017-05-12T03:47:22.461Z,89.32
2017-05-12T03:48:02.924Z,89.8
2017-05-12T03:48:43.502Z,89.23
2017-05-12T03:49:24.060Z,88.94
2017-05-12T03:50:04.473Z,88.75
2017-05-12T03:50:44.962Z,89.61
2017-05-12T03:51:25.477Z,89.76
2017-05-12T03:52:05.927Z,89.66
2017-05-12T03:52:46.391Z,90.05
2017-05-12T03:53:26.920Z,89.95
2017-05-12T03:54:07.320Z,90.19
2017-05-12T03:54:47.842Z,89.71
2017-05-12T03:55:28.355Z,89.42
2017-05-12T03:56:08.936Z,89.13
2017-05-12T03:56:49.477Z,89.32
2017-05-12T03:57:30.011Z,89.32
2017-05-12T03:58:10.417Z,89.66
2017-05-12T03:58:51.101Z,89.61
2017-05-12T03:59:31.718Z,89.76
2017-05-12T04:00:12.177Z,88.99
2017-05-12T04:00:52.646Z,89.09
2017-05-12T04:01:33.264Z,89.47
2017-05-12T04:02:13.779Z,89.28
2017-05-12T04:02:54.334Z,89.32
2017-05-12T04:03:34.847Z,89.76
2017-05-12T04:04:15.453Z,89.42
2017-05-12T04:04:55.920Z,89.37
2017-05-12T04:05:36.380Z,89.42
2017-05-12T04:06:16.874Z,89.61
2017-05-12T04:08:32.602Z,89.95
2017-05-12T04:09:16.031Z,90.14
2017-05-12T04:09:56.495Z,90.23
2017-05-12T04:10:36.987Z,90.33
2017-05-12T04:11:17.462Z,90.23
2017-05-12T04:11:57.939Z,89.76
2017-05-12T04:12:38.532Z,89.66
2017-05-12T04:13:18.980Z,90.05
2017-05-12T04:13:59.498Z,90.14
2017-05-12T04:14:39.984Z,90.05
2017-05-12T04:15:20.770Z,90.14
2017-05-12T04:16:01.418Z,90.05
2017-05-12T04:16:42.006Z,90.14
2017-05-12T04:17:22.462Z,90.81
2017-05-12T04:18:02.920Z,90.43
2017-05-12T04:18:43.424Z,90.53
2017-05-12T04:19:23.916Z,90.33
2017-05-12T04:20:04.608Z,90.53
2017-05-12T04:20:45.066Z,90.53
2017-05-12T04:21:25.562Z,90.33
2017-05-12T04:22:06.103Z,90.14
2017-05-12T04:22:46.579Z,90.05
2017-05-12T04:23:27.055Z,90.14
2017-05-12T04:24:07.534Z,89.86
2017-05-12T04:24:48.047Z,90.14
2017-05-12T04:25:28.488Z,90.05
2017-05-12T04:26:09.052Z,90.05
2017-05-12T04:26:49.569Z,89.57
2017-05-12T04:27:30.020Z,89.66
2017-05-12T04:28:10.493Z,89.66
2017-05-12T04:28:51.016Z,89.86
2017-05-12T04:29:31.634Z,89.47
2017-05-12T04:30:12.249Z,89.76
2017-05-12T04:30:52.793Z,89.8
2017-05-12T04:31:33.287Z,89.51
2017-05-12T04:32:13.753Z,89.61
2017-05-12T04:35:36.689Z,89.23
2017-05-12T04:36:18.615Z,89.04
2017-05-12T04:36:59.066Z,88.94
2017-05-12T04:37:39.595Z,89.04
2017-05-12T04:38:20.099Z,89.23
2017-05-12T04:39:00.548Z,89.8
2017-05-12T04:39:41.028Z,89.51
2017-05-12T04:40:21.538Z,89.42
2017-05-12T04:41:02.036Z,89.61
2017-05-12T04:42:34.873Z,89.23
2017-05-12T04:44:37.176Z,89.51
2017-05-12T04:46:34.582Z,89.32
2017-05-12T04:47:14.137Z,89.42
2017-05-12T04:47:54.735Z,89.32
2017-05-12T04:48:35.256Z,89.23
2017-05-12T04:49:15.757Z,88.84
2017-05-12T04:49:56.245Z,88.75
2017-05-12T04:50:36.714Z,89.32
2017-05-12T04:51:17.225Z,89.04
2017-05-12T04:51:57.828Z,89.04
2017-05-12T04:52:38.301Z,88.65
2017-05-12T04:53:18.787Z,88.94
2017-05-12T04:53:59.765Z,88.94
2017-05-12T04:54:40.260Z,89.23
2017-05-12T04:55:20.712Z,89.04
2017-05-12T04:56:02.205Z,88.65
2017-05-12T04:56:46.256Z,88.65
2017-05-12T05:00:27.430Z,89.13
2017-05-12T05:01:09.153Z,88.94
2017-05-12T05:01:49.622Z,89.23
2017-05-12T05:02:30.129Z,89.42
2017-05-12T05:06:28.491Z,88.27
2017-05-12T05:07:09.478Z,88.75
2017-05-12T05:07:49.878Z,88.46
2017-05-12T05:08:30.425Z,88.65
2017-05-12T05:09:10.905Z,88.56
2017-05-12T05:09:51.424Z,88.08
2017-05-12T05:10:31.950Z,88.17
2017-05-12T05:11:12.431Z,88.84
2017-05-12T05:11:52.921Z,88.46
2017-05-12T05:12:33.535Z,88.17
2017-05-12T05:13:13.884Z,88.46
2017-05-12T05:13:57.548Z,89.04
2017-05-12T05:14:37.521Z,89.13
2017-05-12T05:15:18.050Z,88.65
2017-05-12T05:15:58.540Z,88.65
2017-05-12T05:16:39.045Z,89.04
2017-05-12T05:17:19.504Z,88.56
2017-05-12T05:18:00.041Z,88.08
2017-05-12T05:18:40.759Z,88.37
2017-05-12T05:19:21.126Z,88.27
2017-05-12T05:20:01.579Z,88.65
2017-05-12T05:20:42.095Z,88.46
2017-05-12T05:21:22.586Z,88.08
2017-05-12T05:22:03.041Z,87.98
2017-05-12T05:22:43.697Z,88.65
2017-05-12T05:23:24.153Z,88.31
2017-05-12T05:24:04.607Z,87.26
2017-05-12T05:24:45.081Z,87.26
2017-05-12T05:25:25.708Z,87.07
2017-05-12T05:26:06.182Z,86.97
2017-05-12T05:26:46.678Z,87.26
2017-05-12T05:27:27.142Z,87.07
2017-05-12T05:28:07.626Z,87.07
2017-05-12T05:28:48.145Z,87.07
2017-05-12T05:29:28.656Z,87.16
2017-05-12T05:30:09.254Z,86.3
2017-05-12T05:30:49.762Z,85.86
2017-05-12T05:31:30.178Z,85.58
2017-05-12T05:32:10.855Z,85.38
2017-05-12T05:32:51.330Z,85.67
2017-05-12T05:33:31.846Z,85.1
2017-05-12T05:34:12.486Z,84.81
2017-05-12T05:34:53.174Z,85.19
2017-05-12T05:35:33.750Z,85
2017-05-12T05:36:14.434Z,84.81
2017-05-12T05:36:54.843Z,85.58
2017-05-12T05:37:35.322Z,84.52
2017-05-12T05:38:15.806Z,84.23
2017-05-12T05:38:57.003Z,84.61
2017-05-12T05:39:37.372Z,85
2017-05-12T05:40:18.167Z,84.71
2017-05-12T05:40:58.592Z,85.15
2017-05-12T05:41:39.233Z,85.44
2017-05-12T05:42:23.991Z,85.63
2017-05-12T05:43:04.574Z,86.3
2017-05-12T05:43:45.161Z,86.11
2017-05-12T05:44:26.027Z,86.01
2017-05-12T05:45:08.070Z,85.72
2017-05-12T05:45:48.271Z,85.63
2017-05-12T05:46:28.808Z,85.53
2017-05-12T05:47:09.520Z,85.77
2017-05-12T05:47:50.078Z,86.05
2017-05-12T05:48:30.811Z,85.67
2017-05-12T05:49:11.621Z,85.48
2017-05-12T05:49:52.189Z,85.96
2017-05-12T05:50:32.580Z,85
2017-05-12T05:51:13.080Z,84.91
2017-05-12T05:51:53.553Z,85
2017-05-12T05:52:34.137Z,85.1
2017-05-12T05:53:14.581Z,85.1
2017-05-12T05:56:39.063Z,84.71
2017-05-12T05:57:23.251Z,84.42
2017-05-12T05:58:04.695Z,83.8
2017-05-12T05:58:45.245Z,83.6
2017-05-12T05:59:25.752Z,83.8
2017-05-12T06:00:06.291Z,83.31
2017-05-12T06:00:46.962Z,83.31
2017-05-12T06:01:27.390Z,83.51
2017-05-12T06:02:07.906Z,82.54
2017-05-12T06:02:48.465Z,82.64
2017-05-12T06:03:29.155Z,83.41
2017-05-12T06:04:09.617Z,83.41
2017-05-12T06:04:50.216Z,82.74
2017-05-12T06:05:30.769Z,83.03
2017-05-12T06:06:11.435Z,82.78
2017-05-12T06:06:53.360Z,82.2
2017-05-12T06:07:34.430Z,82.59
2017-05-12T06:09:27.738Z,81.53
2017-05-12T06:10:14.664Z,82.05
2017-05-12T06:10:55.256Z,80.8
2017-05-12T06:11:35.640Z,80.99
2017-05-12T06:12:16.163Z,80.8
2017-05-12T06:12:56.831Z,78.83
2017-05-12T06:13:37.336Z,79.17
2017-05-12T06:14:17.813Z,78.98
2017-05-12T06:14:58.422Z,79.07
2017-05-12T06:15:38.793Z,78.88
2017-05-12T06:16:19.493Z,78.59
2017-05-12T06:16:59.913Z,78.78
2017-05-12T06:17:40.455Z,78.5
2017-05-12T06:18:21.054Z,78.59
2017-05-12T06:19:01.436Z,79.21
2017-05-12T06:19:41.958Z,79.27
2017-05-12T06:20:22.469Z,78.83
2017-05-12T06:21:03.510Z,78.59
2017-05-12T06:21:43.813Z,78.73
2017-05-12T06:22:24.250Z,78.63
2017-05-12T06:23:06.213Z,78.44
2017-05-12T06:23:47.021Z,78.06
2017-05-12T06:24:27.540Z,78.06
2017-05-12T06:25:08.391Z,77.61
2017-05-12T06:25:49.246Z,76.56
2017-05-12T06:26:29.661Z,76.56
2017-05-12T06:27:10.497Z,75.92
2017-05-12T06:27:51.165Z,75.63
2017-05-12T06:28:31.787Z,75.24
2017-05-12T06:29:13.905Z,74.86
2017-05-12T06:29:54.409Z,74.09
2017-05-12T06:30:34.910Z,74.19
2017-05-12T06:31:15.408Z,73.9
2017-05-12T06:31:55.906Z,74.19
2017-05-12T06:32:36.501Z,73.99
2017-05-12T06:33:16.943Z,74.32
2017-05-12T06:33:57.913Z,74.51
2017-05-12T06:34:38.385Z,73.55
2017-05-12T06:35:18.931Z,73.84
2017-05-12T06:35:59.456Z,73.3
2017-05-12T06:36:40.084Z,72.97
2017-05-12T06:37:20.531Z,73.49
2017-05-12T06:38:01.144Z,72.91
2017-05-12T06:38:42.063Z,72.14
2017-05-12T06:39:24.290Z,72.05
2017-05-12T06:40:08.827Z,72.63
2017-05-12T06:40:49.303Z,72.88
2017-05-12T06:41:29.749Z,73.16
2017-05-12T06:42:10.367Z,73.36
2017-05-12T06:42:51.019Z,73.65
2017-05-12T06:43:31.511Z,73.84
2017-05-12T06:44:12.065Z,74.29
2017-05-12T06:44:52.510Z,73.9
2017-05-12T06:45:33.197Z,74.67
2017-05-12T06:46:13.687Z,75.24
2017-05-12T06:46:54.229Z,75.05
2017-05-12T06:47:34.781Z,74.86
2017-05-12T06:48:15.362Z,74.76
2017-05-12T06:48:56.172Z,74.73
2017-05-12T06:49:37.460Z,74.63
2017-05-12T06:50:17.940Z,74.96
2017-05-12T06:50:58.466Z,74.96
2017-05-12T06:51:38.995Z,74.09
2017-05-12T06:52:19.476Z,74.57
2017-05-12T06:53:00.112Z,73.9
2017-05-12T06:53:40.493Z,73.71
2017-05-12T06:54:22.841Z,74.67
2017-05-12T06:55:05.455Z,74.67
2017-05-12T06:55:46.990Z,74.86
2017-05-12T06:56:28.062Z,75.34
2017-05-12T06:57:08.167Z,74.09
2017-05-12T06:57:48.889Z,74.48
2017-05-12T06:58:29.748Z,74.29
2017-05-12T06:59:10.095Z,74.57
2017-05-12T06:59:50.568Z,74.67
2017-05-12T07:00:31.422Z,74.67
2017-05-12T07:01:11.824Z,75.02
2017-05-12T07:01:52.393Z,75.63
2017-05-12T07:02:33.046Z,75.49
2017-05-12T07:03:13.726Z,74.76
2017-05-12T07:03:54.552Z,74.63
2017-05-12T07:04:34.960Z,75.11
2017-05-12T07:05:16.929Z,75.15
2017-05-12T07:05:56.051Z,73.99
2017-05-12T07:06:37.564Z,73.99
2017-05-12T07:07:17.889Z,73.74
2017-05-12T07:07:58.423Z,73.36
2017-05-12T07:08:38.882Z,72.63
2017-05-12T07:09:19.577Z,72.05
2017-05-12T07:09:59.987Z,70.79
2017-05-12T07:10:42.801Z,70.83
2017-05-12T07:11:25.971Z,69.67
2017-05-12T07:12:06.806Z,69.48
2017-05-12T07:12:48.569Z,69.67
2017-05-12T07:13:29.173Z,69.87
2017-05-12T07:14:09.672Z,70.31
2017-05-12T07:14:50.292Z,71.08
2017-05-12T07:15:30.886Z,70.41
2017-05-12T07:16:11.346Z,71.18
2017-05-12T07:16:51.882Z,71.28
2017-05-12T07:17:32.559Z,71.18
2017-05-12T07:18:12.996Z,70.98
2017-05-12T07:18:53.481Z,71.76
2017-05-12T07:19:33.974Z,71.28
2017-05-12T07:20:14.493Z,71.28
2017-05-12T07:20:55.453Z,69.93
2017-05-12T07:21:35.968Z,70.79
2017-05-12T07:22:16.477Z,70.5
2017-05-12T07:22:56.942Z,70.21
2017-05-12T07:23:37.624Z,70.02
2017-05-12T07:24:18.010Z,69.96
2017-05-12T07:24:58.666Z,69.77
2017-05-12T07:25:39.179Z,69.45
2017-05-12T07:26:19.636Z,69.45
2017-05-12T07:27:00.177Z,69.73
2017-05-12T07:27:40.735Z,68.99
2017-05-12T07:30:00.725Z,70.21
2017-05-12T07:30:40.981Z,70.6
2017-05-12T07:31:21.539Z,70.21
2017-05-12T07:32:02.179Z,70.66
2017-05-12T07:32:42.514Z,70.79
2017-05-12T07:33:22.991Z,70.79
2017-05-12T07:34:03.494Z,70.5
2017-05-12T07:34:44.060Z,70.21
2017-05-12T07:35:24.465Z,70.73
2017-05-12T07:36:04.961Z,69.09
2017-05-12T07:36:45.504Z,68.42
2017-05-12T07:37:25.926Z,68.52
2017-05-12T07:38:06.407Z,69.19
2017-05-12T07:38:47.009Z,68.8
2017-05-12T07:39:27.419Z,68.52
2017-05-12T07:40:07.908Z,68.35
2017-05-12T07:43:54.300Z,68.45
2017-05-12T07:44:34.886Z,68.04
2017-05-12T07:45:15.426Z,68.04
2017-05-12T07:45:55.959Z,68.32
2017-05-12T07:46:36.450Z,68.42
2017-05-12T07:47:16.990Z,68.04
2017-05-12T07:47:57.513Z,67.61
2017-05-12T07:48:38.101Z,68.1
2017-05-12T07:49:18.643Z,68.1
2017-05-12T07:49:59.143Z,68.04
2017-05-12T07:50:39.581Z,68.1
2017-05-12T07:51:20.099Z,68.71
2017-05-12T07:52:00.643Z,68.13
2017-05-12T07:52:41.205Z,68.13
2017-05-12T07:53:21.702Z,68.52
2017-05-12T07:54:02.253Z,68.32
2017-05-12T07:54:42.755Z,67.16
2017-05-12T07:55:23.274Z,66.88
2017-05-12T07:56:03.806Z,68.52
2017-05-12T07:56:44.242Z,68.07
2017-05-12T07:57:24.760Z,68.04
2017-05-12T07:58:05.450Z,67.94
2017-05-12T07:58:45.983Z,68.04
2017-05-12T07:59:26.493Z,68.13
2017-05-12T08:00:06.972Z,68.23
2017-05-12T08:00:47.454Z,68.52
2017-05-12T08:01:27.958Z,68.52
2017-05-12T08:02:08.432Z,68.71
2017-05-12T08:02:48.932Z,68.48
2017-05-12T08:03:29.433Z,77.53
2017-05-12T08:04:10.032Z,77.63
2017-05-12T08:04:50.404Z,78.21
2017-05-12T08:05:30.916Z,77.15
2017-05-12T08:06:11.446Z,74.65
2017-05-12T08:06:51.904Z,78.98
2017-05-12T08:07:32.433Z,80.14
2017-05-12T08:08:12.975Z,80.33
2017-05-12T08:08:53.432Z,82.54
2017-05-12T08:09:34.075Z,84.09
2017-05-12T08:10:14.476Z,81.87
2017-05-12T08:10:56.018Z,78.73
2017-05-12T08:11:36.919Z,81.52
2017-05-12T08:12:17.305Z,83.45
2017-05-12T08:12:57.725Z,81.43
2017-05-12T08:13:38.153Z,83.74
2017-05-12T08:14:19.069Z,77.86
2017-05-12T08:14:59.519Z,75.65
2017-05-12T08:15:40.003Z,76.51
2017-05-12T08:16:20.480Z,76.8
2017-05-12T08:17:00.947Z,76.42
2017-05-12T08:17:41.489Z,76.42
2017-05-12T08:18:21.970Z,75.36
2017-05-12T08:19:02.578Z,74.2
2017-05-12T08:19:43.043Z,75.45
2017-05-12T08:20:23.547Z,76.03
2017-05-12T08:21:04.192Z,77.38
2017-05-12T08:21:44.736Z,76.32
2017-05-12T08:22:25.259Z,75.26
2017-05-12T08:23:06.052Z,73.43
2017-05-12T08:23:46.786Z,72.21
2017-05-12T08:24:27.046Z,74.3
2017-05-12T08:25:07.562Z,74.3
2017-05-12T08:25:48.047Z,73.85
2017-05-12T08:26:28.522Z,75.36
2017-05-12T08:27:09.047Z,74.68
2017-05-12T08:27:49.544Z,72.69
2017-05-12T08:28:30.493Z,73.47
2017-05-12T08:29:10.761Z,70.96
2017-05-12T08:29:51.251Z,71.06
2017-05-12T08:30:31.726Z,71.83
2017-05-12T08:31:12.259Z,70.48
2017-05-12T08:31:52.727Z,71.06
2017-05-12T08:32:33.187Z,69.61
2017-05-12T08:33:13.693Z,72.02
2017-05-12T08:35:28.501Z,77.23
2017-05-12T08:36:09.283Z,78.52
2017-05-12T08:36:49.778Z,77.07
2017-05-12T08:37:30.233Z,78.61
2017-05-12T08:38:10.761Z,78.33
2017-05-12T08:38:51.265Z,75.18
2017-05-12T08:39:31.771Z,71.32
2017-05-12T08:40:12.318Z,76.72
2017-05-12T08:40:52.809Z,72.96
2017-05-12T08:41:33.278Z,67.65
2017-05-12T08:42:13.801Z,68.17
2017-05-12T08:42:54.325Z,68.17
2017-05-12T08:43:34.901Z,70.97
2017-05-12T08:44:15.372Z,74.16
2017-05-12T08:44:55.869Z,78.59
2017-05-12T08:45:36.379Z,76.86
2017-05-12T08:46:16.863Z,76.86
2017-05-12T08:46:57.300Z,80.18
2017-05-12T08:47:37.832Z,78.73
2017-05-12T08:48:18.357Z,80.18
2017-05-12T08:48:59.132Z,80.57
2017-05-12T08:49:39.342Z,76.8
2017-05-12T08:50:19.828Z,78.54
2017-05-12T08:51:00.300Z,80.38
2017-05-12T08:52:48.490Z,78.87
2017-05-12T08:53:29.221Z,72.94
2017-05-12T08:54:09.729Z,78.09
2017-05-12T08:54:50.173Z,73.36
2017-05-12T08:55:30.725Z,68.91
2017-05-12T08:56:11.184Z,71.91
2017-05-12T08:56:51.650Z,75.48
2017-05-12T08:57:32.341Z,77.8
2017-05-12T08:58:12.792Z,68.33
2017-05-12T08:58:53.494Z,73.68
2017-05-12T08:59:33.950Z,70.01
2017-05-12T09:00:14.463Z,71.42
2017-05-12T09:00:54.955Z,71.94
2017-05-12T09:01:35.460Z,67.01
2017-05-12T09:02:15.980Z,69.82
2017-05-12T09:02:56.450Z,68.46
2017-05-12T09:03:36.938Z,67.21
2017-05-12T09:04:17.465Z,64.79
2017-05-12T09:04:58.006Z,68.56
2017-05-12T09:05:38.484Z,63.5
2017-05-12T09:06:18.943Z,64.56
2017-05-12T09:06:59.457Z,63.37
2017-05-12T09:07:39.949Z,66.56
2017-05-12T09:08:20.478Z,68.68
2017-05-12T09:09:01.005Z,66.94
2017-05-12T09:09:41.517Z,66.08
2017-05-12T09:10:22.605Z,68.65
2017-05-12T09:11:02.748Z,67.24
2017-05-12T09:11:43.234Z,65.01
2017-05-12T09:12:23.685Z,67.24
2017-05-12T09:13:04.193Z,65.85
2017-05-12T09:13:44.773Z,63.43
2017-05-12T09:14:25.178Z,62.95
2017-05-12T09:15:05.680Z,67.2
2017-05-12T09:15:46.289Z,70.2
2017-05-12T09:16:26.790Z,68.13
2017-05-12T09:17:07.329Z,66.82
2017-05-12T09:17:47.828Z,66.72
2017-05-12T09:18:28.358Z,67.59
2017-05-12T09:19:08.861Z,68.17
2017-05-12T09:19:49.321Z,68.13
2017-05-12T09:20:30.291Z,68.13
2017-05-12T09:21:11.122Z,68.81
2017-05-12T09:21:51.925Z,71.61
2017-05-12T09:22:32.621Z,73.35
2017-05-12T09:23:13.407Z,74.21
2017-05-12T09:23:54.181Z,68.62
2017-05-12T09:24:35.249Z,73.63
2017-05-12T09:25:15.974Z,69.68